createdAt,value
2022-12-15T00:02:51.532Z,-3.20
2022-12-15T00:08:24.810Z,-3.21
2022-12-15T00:13:49.723Z,-3.19
2022-12-15T00:19:14.700Z,-3.20
2022-12-15T00:24:40.098Z,-3.22
2022-12-15T00:30:05.221Z,-3.24
2022-12-15T00:35:31.343Z,-3.31
2022-12-15T00:40:38.951Z,-3.39
2022-12-15T00:46:12.454Z,-3.42
2022-12-15T00:51:20.794Z,-3.44
2022-12-15T00:56:48.107Z,-3.41
2022-12-15T01:02:13.103Z,-3.38
2022-12-15T01:07:38.612Z,-3.38
2022-12-15T01:13:05.048Z,-3.42
2022-12-15T01:18:29.994Z,-3.46
2022-12-15T01:23:38.599Z,-3.50
2022-12-15T01:28:46.252Z,-3.52
2022-12-15T01:33:56.732Z,-3.51
2022-12-15T01:39:10.857Z,-3.49
2022-12-15T01:44:21.935Z,-3.46
2022-12-15T01:49:33.045Z,-3.42
2022-12-15T01:54:44.348Z,-3.41
2022-12-15T01:59:59.147Z,-3.38
2022-12-15T02:05:09.004Z,-3.32
2022-12-15T02:13:53.254Z,-3.30
2022-12-15T02:19:10.585Z,-3.32
2022-12-15T02:24:49.724Z,-3.26
2022-12-15T02:30:31.470Z,-3.16
2022-12-15T02:36:03.397Z,-3.08
2022-12-15T02:41:39.206Z,-3.08
2022-12-15T02:47:05.963Z,-3.14
2022-12-15T02:52:27.799Z,-3.18
2022-12-15T02:58:01.169Z,-3.20
2022-12-15T03:03:09.817Z,-3.23
2022-12-15T03:08:17.222Z,-3.23
2022-12-15T03:13:31.480Z,-3.23
2022-12-15T03:18:43.197Z,-3.20
2022-12-15T03:23:50.647Z,-3.16
2022-12-15T03:28:58.197Z,-3.16
2022-12-15T03:34:05.757Z,-3.15
2022-12-15T03:39:14.121Z,-3.16
2022-12-15T03:44:21.386Z,-3.16
2022-12-15T03:49:28.876Z,-3.15
2022-12-15T03:54:34.752Z,-3.13
2022-12-15T03:59:48.500Z,-3.10
2022-12-15T04:04:56.099Z,-3.07
2022-12-15T04:10:03.442Z,-3.06
2022-12-15T04:15:13.046Z,-3.06
2022-12-15T04:20:24.293Z,-3.09
2022-12-15T04:25:49.000Z,-3.08
2022-12-15T04:31:16.934Z,-3.04
2022-12-15T04:36:43.091Z,-3.01
2022-12-15T04:42:08.036Z,-3.01
2022-12-15T04:47:33.139Z,-3.01
2022-12-15T04:52:57.845Z,-2.99
2022-12-15T04:58:29.614Z,-2.99
2022-12-15T05:09:37.579Z,-3.09
2022-12-15T05:15:03.046Z,-3.09
2022-12-15T05:20:29.306Z,-3.06
2022-12-15T05:25:55.801Z,-3.03
2022-12-15T05:31:28.337Z,-2.99
2022-12-15T05:36:38.868Z,-2.99
2022-12-15T05:41:47.730Z,-2.96
2022-12-15T05:46:55.720Z,-2.93
2022-12-15T05:52:04.031Z,-2.92
2022-12-15T05:57:11.253Z,-2.91
2022-12-15T06:02:19.124Z,-2.90
2022-12-15T06:07:27.047Z,-2.89
2022-12-15T06:12:34.761Z,-2.85
2022-12-15T06:17:41.996Z,-2.83
2022-12-15T06:22:50.440Z,-2.80
2022-12-15T06:28:01.728Z,-2.79
2022-12-15T06:33:10.921Z,-2.79
2022-12-15T06:38:21.778Z,-2.82
2022-12-15T06:43:33.658Z,-2.84
2022-12-15T06:48:45.312Z,-2.83
2022-12-15T06:53:56.532Z,-2.78
2022-12-15T06:59:06.472Z,-2.74
2022-12-15T07:04:14.430Z,-2.71
2022-12-15T07:09:22.064Z,-2.69
2022-12-15T07:14:30.691Z,-2.68
2022-12-15T07:19:38.195Z,-2.66
2022-12-15T07:24:46.230Z,-2.64
2022-12-15T07:29:53.834Z,-2.58
2022-12-15T07:35:05.487Z,-2.50
2022-12-15T07:40:14.291Z,-2.46
2022-12-15T07:45:22.083Z,-2.40
2022-12-15T07:50:30.403Z,-2.38
2022-12-15T07:56:06.423Z,-2.39
2022-12-15T08:01:16.474Z,-2.39
2022-12-15T08:06:23.925Z,-2.37
2022-12-15T08:11:35.461Z,-2.33
2022-12-15T08:16:43.933Z,-2.31
2022-12-15T08:21:51.635Z,-2.30
2022-12-15T08:27:01.617Z,-2.28
2022-12-15T08:32:10.910Z,-2.28
2022-12-15T08:42:58.429Z,-2.18
2022-12-15T08:48:06.062Z,-2.17
2022-12-15T08:53:30.918Z,-2.16
2022-12-15T08:58:40.660Z,-2.15
2022-12-15T09:03:50.721Z,-2.12
2022-12-15T09:09:15.652Z,-2.06
2022-12-15T09:14:29.457Z,-2.02
2022-12-15T09:19:37.321Z,-2.01
2022-12-15T09:24:44.658Z,-1.98
2022-12-15T09:29:52.254Z,-1.93
2022-12-15T09:34:59.656Z,-1.95
2022-12-15T09:40:07.763Z,-1.99
2022-12-15T09:45:21.259Z,-1.98
2022-12-15T09:50:35.352Z,-1.99
2022-12-15T09:55:45.376Z,-1.98
2022-12-15T10:01:03.189Z,-1.97
2022-12-15T10:06:16.993Z,-1.95
2022-12-15T10:11:42.427Z,-1.94
2022-12-15T10:17:00.205Z,-1.99
2022-12-15T10:22:05.972Z,-2.01
2022-12-15T10:27:36.351Z,-1.97
2022-12-15T10:33:00.542Z,-1.88
2022-12-15T10:38:15.560Z,-1.88
2022-12-15T10:43:31.421Z,-1.89
2022-12-15T10:48:39.780Z,-1.93
2022-12-15T10:53:50.944Z,-1.95
2022-12-15T10:59:00.285Z,-1.91
2022-12-15T11:04:25.490Z,-1.91
2022-12-15T11:09:36.704Z,-1.95
2022-12-15T11:14:47.917Z,-1.98
2022-12-15T11:20:02.984Z,-2.02
2022-12-15T11:25:22.302Z,-2.00
2022-12-15T11:30:35.171Z,-1.98
2022-12-15T11:35:55.532Z,-1.97
2022-12-15T11:41:13.637Z,-1.96
2022-12-15T11:46:25.344Z,-1.87
2022-12-15T11:51:45.406Z,-1.81
2022-12-15T11:56:58.193Z,-1.84
2022-12-15T12:02:25.486Z,-1.86
2022-12-15T12:07:42.452Z,-1.84
2022-12-15T12:13:01.576Z,-1.83
2022-12-15T12:18:15.410Z,-1.82
2022-12-15T12:23:39.822Z,-1.81
2022-12-15T12:28:58.481Z,-1.80
2022-12-15T12:34:14.749Z,-1.76
2022-12-15T12:39:25.758Z,-1.73
2022-12-15T12:44:35.619Z,-1.73
2022-12-15T12:49:47.020Z,-1.74
2022-12-15T12:55:05.034Z,-1.73
2022-12-15T13:00:24.040Z,-1.70
2022-12-15T13:05:36.356Z,-1.71
2022-12-15T13:10:45.552Z,-1.76
2022-12-15T13:16:03.598Z,-1.80
2022-12-15T13:21:52.876Z,-1.81
2022-12-15T13:27:17.417Z,-1.75
2022-12-15T13:32:40.144Z,-1.70
2022-12-15T13:37:54.346Z,-1.65
2022-12-15T13:43:09.423Z,-1.68
2022-12-15T13:48:33.012Z,-1.66
2022-12-15T13:53:51.488Z,-1.57
2022-12-15T13:59:06.309Z,-1.48
2022-12-15T14:04:16.815Z,-1.42
2022-12-15T14:09:41.431Z,-1.35
2022-12-15T14:14:53.305Z,-1.30
2022-12-15T14:20:11.867Z,-1.27
2022-12-15T14:25:23.074Z,-1.25
2022-12-15T14:30:33.878Z,-1.30
2022-12-15T14:35:49.469Z,-1.36
2022-12-15T14:41:02.151Z,-1.41
2022-12-15T14:46:13.015Z,-1.42
2022-12-15T14:51:20.886Z,-1.41
2022-12-15T14:56:31.776Z,-1.39
2022-12-15T15:01:41.850Z,-1.43
2022-12-15T15:06:55.196Z,-1.43
2022-12-15T15:12:07.204Z,-1.48
2022-12-15T15:17:25.552Z,-1.51
2022-12-15T15:22:41.097Z,-1.56
2022-12-15T15:27:48.823Z,-1.57
2022-12-15T15:32:58.640Z,-1.55
2022-12-15T15:38:12.792Z,-1.51
2022-12-15T15:43:20.784Z,-1.46
2022-12-15T15:48:32.404Z,-1.44
2022-12-15T15:53:40.535Z,-1.43
2022-12-15T15:58:48.556Z,-1.41
2022-12-15T16:03:55.718Z,-1.40
2022-12-15T16:09:03.290Z,-1.39
2022-12-15T16:14:14.551Z,-1.41
2022-12-15T16:19:21.914Z,-1.41
2022-12-15T16:24:29.359Z,-1.42
2022-12-15T16:29:38.537Z,-1.44
2022-12-15T16:34:45.902Z,-1.46
2022-12-15T16:43:19.852Z,-1.46
2022-12-15T16:48:27.182Z,-1.48
2022-12-15T16:53:37.970Z,-1.48
2022-12-15T16:58:48.759Z,-1.46
2022-12-15T17:04:00.562Z,-1.47
2022-12-15T17:09:09.575Z,-1.49
2022-12-15T17:14:17.079Z,-1.50
2022-12-15T17:19:24.391Z,-1.49
2022-12-15T17:24:30.051Z,-1.48
2022-12-15T17:29:37.343Z,-1.48
2022-12-15T17:34:43.435Z,-1.51
2022-12-15T17:39:51.915Z,-1.54
2022-12-15T17:44:59.406Z,-1.59
2022-12-15T17:50:07.651Z,-1.64
2022-12-15T17:55:34.836Z,-1.69
2022-12-15T18:00:48.914Z,-1.72
2022-12-15T18:06:07.614Z,-1.75
2022-12-15T18:11:17.977Z,-1.75
2022-12-15T18:16:25.288Z,-1.74
2022-12-15T18:21:32.691Z,-1.77
2022-12-15T18:26:40.623Z,-1.79
2022-12-15T18:31:49.770Z,-1.82
2022-12-15T18:36:57.841Z,-1.87
2022-12-15T18:42:29.518Z,-1.91
2022-12-15T18:47:40.183Z,-1.94
2022-12-15T18:52:49.262Z,-2.00
2022-12-15T18:57:59.012Z,-1.98
2022-12-15T19:03:06.669Z,-1.96
2022-12-15T19:08:20.446Z,-1.94
2022-12-15T19:13:32.000Z,-1.93
2022-12-15T19:18:57.094Z,-1.94
2022-12-15T19:32:23.096Z,-1.99
2022-12-15T19:37:32.177Z,-2.02
2022-12-15T19:42:41.165Z,-2.05
2022-12-15T19:47:48.979Z,-2.07
2022-12-15T19:52:59.407Z,-2.09
2022-12-15T20:08:17.720Z,-2.19
2022-12-15T20:13:22.556Z,-2.26
2022-12-15T20:18:26.862Z,-2.26
2022-12-15T20:23:31.596Z,-2.26
2022-12-15T20:28:36.265Z,-2.30
2022-12-15T20:33:45.266Z,-2.33
2022-12-15T20:38:54.717Z,-2.36
2022-12-15T20:44:28.694Z,-2.36
2022-12-15T20:49:33.068Z,-2.42
2022-12-15T20:54:37.230Z,-2.48
2022-12-15T20:59:42.009Z,-2.47
2022-12-15T21:04:47.006Z,-2.43
2022-12-15T21:09:51.228Z,-2.44
2022-12-15T21:14:55.456Z,-2.48
2022-12-15T21:20:00.531Z,-2.53
2022-12-15T21:25:15.023Z,-2.57
2022-12-15T21:30:25.489Z,-2.62
2022-12-15T21:35:31.884Z,-2.65
2022-12-15T21:41:05.352Z,-2.63
2022-12-15T21:46:15.421Z,-2.65
2022-12-15T21:51:19.539Z,-2.66
2022-12-15T21:56:23.492Z,-2.67
2022-12-15T22:01:30.414Z,-2.70
2022-12-15T22:06:34.496Z,-2.72
2022-12-15T22:11:40.355Z,-2.74
2022-12-15T22:16:44.788Z,-2.75
2022-12-15T22:21:49.323Z,-2.70
2022-12-15T22:26:53.295Z,-2.68
2022-12-15T22:31:58.809Z,-2.73
2022-12-15T22:37:03.075Z,-2.75
2022-12-15T22:42:09.293Z,-2.75
2022-12-15T22:47:13.561Z,-2.76
2022-12-15T22:52:19.876Z,-2.75
2022-12-15T22:57:26.219Z,-2.73
2022-12-15T23:02:35.838Z,-2.73
2022-12-15T23:07:39.641Z,-2.75
2022-12-15T23:12:43.547Z,-2.78
2022-12-15T23:17:47.257Z,-2.78
2022-12-15T23:22:51.082Z,-2.79
2022-12-15T23:27:55.610Z,-2.82
2022-12-15T23:32:59.446Z,-2.81
2022-12-15T23:43:19.223Z,-2.76
2022-12-15T23:48:29.912Z,-2.78
2022-12-15T23:53:38.423Z,-2.75
2022-12-15T23:58:47.636Z,-2.73
